Time;durP1;ratioP1;P1;durP2;ratioP2;P2;SDS_P1;SDS_P2;PMS_P1;PMS_P2;Temp;Humidity;BMP_temperature;BMP_pressure;BME280_temperature;BME280_humidity;BME280_pressure;Samples;Min_cycle;Max_cycle;Signal;HPM_P1;HPM_P2
2023/07/23 00:00:42;;;;;;;3.43;2.70;;;;;;;;;;5033739;28;20481;-55
2023/07/23 00:03:11;;;;;;;3.50;2.20;;;;;;;;;;5018713;28;20530;-54
2023/07/23 00:05:38;;;;;;;3.87;2.37;;;;;;;;;;5014178;28;20872;-55
2023/07/23 00:08:06;;;;;;;3.13;2.47;;;;;;;;;;5013472;28;20442;-54
2023/07/23 00:10:33;;;;;;;3.70;2.53;;;;;;;;;;5014296;28;20527;-54
2023/07/23 00:13:01;;;;;;;4.53;2.70;;;;;;;;;;5014116;28;20479;-54
2023/07/23 00:15:28;;;;;;;3.70;2.53;;;;;;;;;;5028581;28;20558;-55
2023/07/23 00:17:57;;;;;;;3.63;3.00;;;;;;;;;;5032336;28;20447;-55
2023/07/23 00:20:25;;;;;;;4.10;2.93;;;;;;;;;;5031200;28;21063;-54
2023/07/23 00:22:52;;;;;;;3.57;2.53;;;;;;;;;;5031748;28;20474;-53
2023/07/23 00:25:20;;;;;;;4.27;3.10;;;;;;;;;;5031420;28;20540;-55
2023/07/23 00:27:47;;;;;;;3.73;2.50;;;;;;;;;;5031971;28;20522;-54
2023/07/23 00:30:14;;;;;;;4.00;2.80;;;;;;;;;;5030719;28;21032;-54
2023/07/23 00:32:41;;;;;;;5.50;3.30;;;;;;;;;;5032535;28;20438;-53
2023/07/23 00:35:09;;;;;;;4.67;3.30;;;;;;;;;;5033261;28;20926;-53
2023/07/23 00:37:37;;;;;;;5.83;2.90;;;;;;;;;;5032737;28;21065;-53
2023/07/23 00:40:05;;;;;;;4.20;3.27;;;;;;;;;;5032467;28;20557;-53
2023/07/23 00:42:33;;;;;;;3.60;2.57;;;;;;;;;;5032294;28;20867;-54
2023/07/23 00:45:00;;;;;;;4.80;2.70;;;;;;;;;;5032425;28;20462;-54
2023/07/23 00:47:27;;;;;;;3.60;2.60;;;;;;;;;;5032250;28;20521;-53
2023/07/23 00:49:55;;;;;;;4.20;3.00;;;;;;;;;;5031973;28;20466;-54
2023/07/23 00:52:22;;;;;;;3.70;2.87;;;;;;;;;;5032236;28;20474;-53
2023/07/23 00:54:51;;;;;;;6.37;3.57;;;;;;;;;;5032024;28;20470;-53
2023/07/23 00:57:19;;;;;;;5.00;3.37;;;;;;;;;;5032263;28;20565;-54
2023/07/23 00:59:45;;;;;;;4.13;2.97;;;;;;;;;;5031935;28;20493;-52
2023/07/23 01:02:12;;;;;;;4.10;2.50;;;;;;;;;;5030828;28;20497;-52
2023/07/23 01:04:40;;;;;;;6.17;2.80;;;;;;;;;;5032245;28;20474;-52
2023/07/23 01:07:09;;;;;;;3.57;2.23;;;;;;;;;;5032731;28;20926;-53
2023/07/23 01:09:37;;;;;;;4.87;2.50;;;;;;;;;;5032165;28;20524;-54
2023/07/23 01:12:07;;;;;;;2.93;1.90;;;;;;;;;;5032318;28;20442;-54
2023/07/23 01:14:34;;;;;;;3.93;3.07;;;;;;;;;;5032305;28;20446;-54
2023/07/23 01:17:02;;;;;;;3.40;2.47;;;;;;;;;;5032338;28;20514;-54
2023/07/23 01:19:29;;;;;;;5.63;2.93;;;;;;;;;;5031049;28;20489;-53
2023/07/23 01:22:00;;;;;;;3.40;2.60;;;;;;;;;;5032000;28;21012;-52
2023/07/23 01:24:28;;;;;;;3.80;2.90;;;;;;;;;;5032710;28;20446;-52
2023/07/23 01:26:55;;;;;;;4.47;2.80;;;;;;;;;;5031941;28;20827;-53
2023/07/23 01:29:22;;;;;;;3.93;2.77;;;;;;;;;;5031673;28;20558;-54
2023/07/23 01:31:50;;;;;;;3.27;2.10;;;;;;;;;;5031984;28;20446;-53
2023/07/23 01:34:17;;;;;;;5.63;2.60;;;;;;;;;;5031568;28;20900;-53
2023/07/23 01:36:45;;;;;;;3.90;2.60;;;;;;;;;;5032167;28;20564;-52
2023/07/23 01:39:14;;;;;;;8.50;3.13;;;;;;;;;;5031122;28;20552;-53
2023/07/23 01:41:41;;;;;;;3.87;2.80;;;;;;;;;;5031675;28;20525;-53
2023/07/23 01:44:08;;;;;;;4.33;2.97;;;;;;;;;;5030993;28;20470;-52
2023/07/23 01:46:36;;;;;;;4.10;2.80;;;;;;;;;;5030848;28;20504;-53
2023/07/23 01:49:03;;;;;;;5.90;3.40;;;;;;;;;;5030744;28;20498;-54
2023/07/23 01:51:30;;;;;;;3.63;2.93;;;;;;;;;;5031422;28;20450;-52
2023/07/23 01:53:57;;;;;;;4.20;3.50;;;;;;;;;;5031201;28;20486;-54
2023/07/23 01:56:26;;;;;;;5.03;3.00;;;;;;;;;;5030405;28;20482;-54
2023/07/23 01:58:53;;;;;;;3.80;2.90;;;;;;;;;;5031157;28;20549;-52
2023/07/23 02:01:21;;;;;;;3.77;3.17;;;;;;;;;;5031153;28;20521;-53
2023/07/23 02:03:48;;;;;;;3.83;2.83;;;;;;;;;;5030689;28;20446;-54
2023/07/23 02:06:16;;;;;;;4.80;4.27;;;;;;;;;;5030798;28;20438;-54
2023/07/23 02:08:43;;;;;;;4.33;2.60;;;;;;;;;;5032157;28;20553;-54
2023/07/23 02:11:10;;;;;;;4.37;2.90;;;;;;;;;;5032363;28;20442;-54
2023/07/23 02:13:39;;;;;;;4.20;2.57;;;;;;;;;;5031908;28;20857;-53
2023/07/23 02:16:06;;;;;;;3.20;2.27;;;;;;;;;;5028497;28;21028;-54
2023/07/23 02:18:33;;;;;;;3.97;2.37;;;;;;;;;;5032766;28;20474;-52
2023/07/23 02:21:01;;;;;;;3.30;2.30;;;;;;;;;;5031946;28;20489;-55
2023/07/23 02:23:28;;;;;;;4.10;2.73;;;;;;;;;;5032953;28;20542;-52
2023/07/23 02:25:55;;;;;;;3.70;2.97;;;;;;;;;;5032516;28;20783;-52
2023/07/23 02:28:22;;;;;;;3.40;2.50;;;;;;;;;;5033413;28;20794;-53
2023/07/23 02:30:57;;;;;;;3.30;2.43;;;;;;;;;;5032748;28;20457;-53
2023/07/23 02:33:25;;;;;;;4.43;2.83;;;;;;;;;;5032384;28;20541;-53
2023/07/23 02:35:52;;;;;;;7.20;2.67;;;;;;;;;;5032744;28;21010;-54
2023/07/23 02:38:19;;;;;;;5.13;2.67;;;;;;;;;;5032285;28;20529;-53
2023/07/23 02:40:46;;;;;;;3.83;2.63;;;;;;;;;;5031991;28;20450;-52
2023/07/23 02:43:14;;;;;;;3.93;2.87;;;;;;;;;;5032547;28;20524;-54
2023/07/23 02:45:42;;;;;;;5.13;2.90;;;;;;;;;;5033191;28;20857;-53
2023/07/23 02:48:10;;;;;;;6.37;2.90;;;;;;;;;;5032421;28;20446;-53
2023/07/23 02:50:39;;;;;;;5.10;2.87;;;;;;;;;;5032243;28;20490;-52
2023/07/23 02:53:07;;;;;;;3.50;2.70;;;;;;;;;;5032768;28;20438;-54
2023/07/23 02:55:34;;;;;;;3.60;2.50;;;;;;;;;;5032738;28;20541;-53
2023/07/23 02:58:03;;;;;;;3.87;2.30;;;;;;;;;;5033199;28;20470;-54
2023/07/23 03:00:30;;;;;;;5.47;2.80;;;;;;;;;;5032369;28;20978;-55
2023/07/23 03:02:58;;;;;;;3.53;2.50;;;;;;;;;;5033009;28;20442;-53
2023/07/23 03:05:26;;;;;;;4.77;2.50;;;;;;;;;;5033384;28;20442;-53
2023/07/23 03:07:53;;;;;;;3.60;2.77;;;;;;;;;;5033678;28;20446;-54
2023/07/23 03:10:21;;;;;;;4.47;2.43;;;;;;;;;;5037552;28;20462;-54
2023/07/23 03:12:48;;;;;;;3.87;2.73;;;;;;;;;;5037317;28;21012;-54
2023/07/23 03:15:15;;;;;;;4.17;2.60;;;;;;;;;;5036808;28;20895;-54
2023/07/23 03:17:42;;;;;;;3.60;2.60;;;;;;;;;;5037087;28;20541;-54
2023/07/23 03:20:10;;;;;;;4.90;2.50;;;;;;;;;;5036257;28;20461;-53
2023/07/23 03:22:40;;;;;;;3.27;2.60;;;;;;;;;;5040034;28;20443;-55
2023/07/23 03:25:07;;;;;;;3.73;2.40;;;;;;;;;;5036809;28;20474;-54
2023/07/23 03:27:34;;;;;;;3.80;2.57;;;;;;;;;;5037255;28;20441;-54
2023/07/23 03:30:02;;;;;;;3.40;2.60;;;;;;;;;;5035776;28;20490;-53
2023/07/23 03:32:30;;;;;;;4.50;2.70;;;;;;;;;;5036873;28;20485;-55
2023/07/23 03:34:57;;;;;;;5.10;2.83;;;;;;;;;;5036539;28;20521;-55
2023/07/23 03:37:24;;;;;;;4.10;2.70;;;;;;;;;;5036787;28;21043;-53
2023/07/23 03:39:53;;;;;;;4.90;2.70;;;;;;;;;;5035448;28;20557;-54
2023/07/23 03:42:20;;;;;;;4.23;2.73;;;;;;;;;;5036269;28;20633;-54
2023/07/23 03:44:47;;;;;;;4.80;3.00;;;;;;;;;;5036504;28;20526;-54
2023/07/23 03:47:15;;;;;;;4.90;2.87;;;;;;;;;;5035893;28;20570;-54
2023/07/23 03:49:43;;;;;;;5.33;2.70;;;;;;;;;;5036473;28;20490;-55
2023/07/23 03:52:10;;;;;;;5.30;2.60;;;;;;;;;;5035879;28;20481;-53
2023/07/23 03:54:37;;;;;;;4.90;2.70;;;;;;;;;;5035604;28;20531;-54
2023/07/23 03:57:06;;;;;;;4.10;2.43;;;;;;;;;;5035106;28;20502;-53
2023/07/23 03:59:36;;;;;;;4.10;2.17;;;;;;;;;;5034937;28;20918;-53
2023/07/23 04:02:03;;;;;;;5.93;2.67;;;;;;;;;;5034275;28;20818;-54
2023/07/23 04:04:31;;;;;;;3.77;2.70;;;;;;;;;;5034993;28;20442;-53
2023/07/23 04:06:58;;;;;;;3.90;2.73;;;;;;;;;;5035400;28;20534;-54
2023/07/23 04:09:25;;;;;;;4.00;2.50;;;;;;;;;;5033753;28;20553;-53
2023/07/23 04:11:52;;;;;;;3.83;2.60;;;;;;;;;;5035027;28;20529;-53
2023/07/23 04:14:21;;;;;;;3.37;2.73;;;;;;;;;;5035862;28;20527;-53
2023/07/23 04:16:48;;;;;;;4.47;2.73;;;;;;;;;;5036117;28;20907;-52
2023/07/23 04:19:15;;;;;;;6.07;2.33;;;;;;;;;;5034663;28;20506;-53
2023/07/23 04:21:43;;;;;;;3.27;2.30;;;;;;;;;;5035198;28;20470;-54
2023/07/23 04:24:10;;;;;;;3.87;2.97;;;;;;;;;;5036001;28;20535;-53
2023/07/23 04:26:37;;;;;;;6.23;3.00;;;;;;;;;;5035149;28;20497;-53
2023/07/23 04:29:05;;;;;;;5.70;2.93;;;;;;;;;;5034860;28;20499;-55
2023/07/23 04:31:33;;;;;;;3.13;2.50;;;;;;;;;;5035181;28;20471;-52
2023/07/23 04:34:00;;;;;;;3.90;2.43;;;;;;;;;;5035745;28;20474;-53
2023/07/23 04:36:29;;;;;;;4.90;3.07;;;;;;;;;;5035889;28;20439;-53
2023/07/23 04:38:56;;;;;;;3.80;2.50;;;;;;;;;;5035486;28;20476;-52
2023/07/23 04:41:23;;;;;;;4.10;2.90;;;;;;;;;;5035152;28;20438;-52
2023/07/23 04:43:50;;;;;;;4.10;2.70;;;;;;;;;;5035348;28;20533;-54
2023/07/23 04:46:18;;;;;;;5.20;2.70;;;;;;;;;;5028017;28;20522;-54
2023/07/23 04:48:46;;;;;;;6.10;2.90;;;;;;;;;;5015041;28;21019;-53
2023/07/23 04:51:13;;;;;;;4.77;2.87;;;;;;;;;;5021635;28;20525;-53
2023/07/23 04:53:41;;;;;;;4.27;2.70;;;;;;;;;;5034960;28;20520;-54
2023/07/23 04:56:08;;;;;;;4.60;2.60;;;;;;;;;;5034638;28;20537;-53
2023/07/23 04:58:35;;;;;;;5.00;2.70;;;;;;;;;;5033803;28;21241;-54
2023/07/23 05:01:07;;;;;;;3.77;2.50;;;;;;;;;;5034002;28;20496;-54
2023/07/23 05:03:34;;;;;;;4.80;2.90;;;;;;;;;;5032953;28;20877;-53
2023/07/23 05:06:04;;;;;;;4.47;3.10;;;;;;;;;;5033119;28;20474;-53
2023/07/23 05:08:32;;;;;;;4.80;2.97;;;;;;;;;;5033345;28;20470;-52
2023/07/23 05:11:00;;;;;;;3.80;3.00;;;;;;;;;;5033097;28;21030;-53
2023/07/23 05:13:27;;;;;;;3.80;2.60;;;;;;;;;;5034184;28;20827;-52
2023/07/23 05:15:54;;;;;;;4.30;2.53;;;;;;;;;;5033376;28;20477;-55
2023/07/23 05:18:22;;;;;;;3.30;2.80;;;;;;;;;;5033369;28;20525;-54
2023/07/23 05:20:49;;;;;;;6.73;3.07;;;;;;;;;;5027259;28;20471;-54
2023/07/23 05:23:17;;;;;;;4.50;3.13;;;;;;;;;;5026522;28;20525;-53
2023/07/23 05:25:45;;;;;;;4.23;2.67;;;;;;;;;;5032280;28;20470;-52
2023/07/23 05:28:12;;;;;;;3.60;2.50;;;;;;;;;;5032766;28;20476;-53
2023/07/23 05:30:39;;;;;;;7.10;3.00;;;;;;;;;;5031918;28;20542;-53
2023/07/23 05:33:07;;;;;;;5.43;2.70;;;;;;;;;;5029541;28;20474;-53
2023/07/23 05:35:34;;;;;;;4.77;2.60;;;;;;;;;;5027682;28;20533;-52
2023/07/23 05:38:01;;;;;;;4.80;2.77;;;;;;;;;;5029477;28;20565;-53
2023/07/23 05:40:35;;;;;;;4.40;2.93;;;;;;;;;;5058685;22;20597;-54
2023/07/23 05:43:06;;;;;;;4.33;2.87;;;;;;;;;;5046893;28;20816;-54
2023/07/23 05:45:34;;;;;;;4.17;2.40;;;;;;;;;;5049668;28;20495;-55
2023/07/23 05:48:01;;;;;;;4.00;2.90;;;;;;;;;;5047113;28;20516;-54
2023/07/23 05:50:28;;;;;;;3.17;2.23;;;;;;;;;;5033541;28;20904;-54
2023/07/23 05:52:55;;;;;;;3.30;2.80;;;;;;;;;;5028782;28;20537;-53
2023/07/23 05:55:23;;;;;;;4.43;3.10;;;;;;;;;;5028600;28;20508;-54
2023/07/23 05:57:51;;;;;;;5.37;3.47;;;;;;;;;;5029418;28;20498;-54
2023/07/23 06:00:18;;;;;;;3.93;3.30;;;;;;;;;;5029211;28;20545;-55
2023/07/23 06:02:46;;;;;;;6.30;3.33;;;;;;;;;;5026913;28;20873;-54
2023/07/23 06:05:13;;;;;;;5.10;3.50;;;;;;;;;;5028613;28;20482;-54
2023/07/23 06:07:40;;;;;;;4.30;2.80;;;;;;;;;;5029009;28;20434;-54
2023/07/23 06:10:08;;;;;;;3.50;2.47;;;;;;;;;;5029008;28;20508;-54
2023/07/23 06:12:35;;;;;;;3.03;2.40;;;;;;;;;;5028120;28;20438;-54
2023/07/23 06:15:04;;;;;;;5.77;3.20;;;;;;;;;;5027511;28;20528;-54
2023/07/23 06:17:31;;;;;;;5.13;3.30;;;;;;;;;;5029487;28;20573;-54
2023/07/23 06:19:58;;;;;;;4.53;2.97;;;;;;;;;;5028651;28;20466;-54
2023/07/23 06:22:26;;;;;;;4.47;2.90;;;;;;;;;;5029082;28;20462;-54
2023/07/23 06:24:53;;;;;;;4.70;3.10;;;;;;;;;;5029782;28;20466;-54
2023/07/23 06:27:20;;;;;;;4.30;2.80;;;;;;;;;;5029790;28;20524;-54
2023/07/23 06:29:47;;;;;;;4.83;2.90;;;;;;;;;;5027840;28;20528;-53
2023/07/23 06:32:16;;;;;;;3.50;2.60;;;;;;;;;;5028728;28;20442;-54
2023/07/23 06:34:43;;;;;;;5.63;3.53;;;;;;;;;;5025577;28;20450;-55
2023/07/23 06:37:10;;;;;;;4.00;2.57;;;;;;;;;;5028995;28;20537;-54
2023/07/23 06:39:38;;;;;;;4.10;3.07;;;;;;;;;;5027897;28;20497;-54
2023/07/23 06:42:05;;;;;;;3.30;2.57;;;;;;;;;;5029476;28;20481;-54
2023/07/23 06:44:32;;;;;;;3.70;2.60;;;;;;;;;;5028944;28;20518;-54
2023/07/23 06:47:00;;;;;;;4.37;2.83;;;;;;;;;;5029116;28;20962;-54
2023/07/23 06:49:30;;;;;;;5.17;3.30;;;;;;;;;;5025774;28;20516;-55
2023/07/23 06:51:57;;;;;;;4.50;2.80;;;;;;;;;;5018160;28;20454;-54
2023/07/23 06:54:25;;;;;;;4.17;3.17;;;;;;;;;;5018554;28;20940;-54
2023/07/23 06:56:52;;;;;;;3.53;2.90;;;;;;;;;;5028189;28;20477;-54
2023/07/23 06:59:20;;;;;;;4.07;2.80;;;;;;;;;;5028542;28;20489;-54
2023/07/23 07:01:47;;;;;;;5.27;2.80;;;;;;;;;;5024259;28;20539;-54
2023/07/23 07:04:15;;;;;;;3.70;2.67;;;;;;;;;;5025470;28;20445;-54
2023/07/23 07:06:44;;;;;;;4.37;3.20;;;;;;;;;;5028071;28;20934;-54
2023/07/23 07:09:11;;;;;;;4.50;3.33;;;;;;;;;;5021431;28;20455;-54
2023/07/23 07:11:38;;;;;;;3.60;2.37;;;;;;;;;;5018263;28;20470;-54
2023/07/23 07:14:05;;;;;;;5.47;2.73;;;;;;;;;;5029127;28;20525;-54
2023/07/23 07:16:33;;;;;;;4.53;3.10;;;;;;;;;;5024667;28;20486;-54
2023/07/23 07:19:00;;;;;;;4.13;3.27;;;;;;;;;;5017760;28;20483;-55
2023/07/23 07:21:27;;;;;;;3.80;2.90;;;;;;;;;;5020484;28;20525;-54
2023/07/23 07:23:56;;;;;;;4.57;3.10;;;;;;;;;;5018196;28;20501;-55
2023/07/23 07:26:23;;;;;;;3.93;2.57;;;;;;;;;;5023748;28;20475;-55
2023/07/23 07:28:51;;;;;;;3.60;2.60;;;;;;;;;;5022489;28;20465;-55
2023/07/23 07:31:18;;;;;;;4.23;3.27;;;;;;;;;;5006312;28;20447;-55
2023/07/23 07:33:46;;;;;;;4.03;3.40;;;;;;;;;;5006040;28;20534;-54
2023/07/23 07:36:13;;;;;;;4.50;2.70;;;;;;;;;;5006283;28;20512;-53
2023/07/23 07:38:41;;;;;;;3.63;2.43;;;;;;;;;;5005951;28;21108;-51
2023/07/23 07:41:09;;;;;;;3.60;2.30;;;;;;;;;;5014427;28;20833;-52
2023/07/23 07:43:37;;;;;;;4.00;2.70;;;;;;;;;;5010540;28;20885;-51
2023/07/23 07:46:06;;;;;;;4.07;2.60;;;;;;;;;;5011061;28;20463;-52
2023/07/23 07:48:33;;;;;;;4.00;2.83;;;;;;;;;;5009483;28;20449;-53
2023/07/23 07:51:01;;;;;;;4.20;2.57;;;;;;;;;;5005767;28;20779;-52
2023/07/23 07:53:28;;;;;;;5.20;3.07;;;;;;;;;;5006060;28;20521;-52
2023/07/23 07:55:56;;;;;;;5.20;3.23;;;;;;;;;;5023367;28;21030;-53
2023/07/23 07:58:25;;;;;;;5.53;4.93;;;;;;;;;;5026337;28;20509;-51
2023/07/23 08:00:54;;;;;;;5.10;3.00;;;;;;;;;;5029143;28;20466;-52
2023/07/23 08:03:21;;;;;;;3.90;2.50;;;;;;;;;;5028516;28;20445;-52
2023/07/23 08:05:49;;;;;;;4.87;3.20;;;;;;;;;;5028131;28;20474;-52
2023/07/23 08:08:17;;;;;;;4.27;3.30;;;;;;;;;;5027690;28;20465;-52
2023/07/23 08:10:45;;;;;;;3.57;2.80;;;;;;;;;;5028211;28;20458;-54
2023/07/23 08:13:15;;;;;;;4.80;3.87;;;;;;;;;;5028099;28;20451;-52
2023/07/23 08:15:44;;;;;;;4.67;3.50;;;;;;;;;;5028314;28;20453;-53
2023/07/23 08:18:12;;;;;;;3.90;3.20;;;;;;;;;;5016614;28;20566;-52
2023/07/23 08:20:39;;;;;;;5.33;3.00;;;;;;;;;;5009242;28;20924;-53
2023/07/23 08:23:07;;;;;;;4.03;3.57;;;;;;;;;;5009732;28;20455;-51
2023/07/23 08:25:35;;;;;;;6.03;3.20;;;;;;;;;;5009891;28;20530;-51
2023/07/23 08:28:03;;;;;;;3.83;2.80;;;;;;;;;;5009618;28;20538;-53
2023/07/23 08:30:31;;;;;;;4.10;3.03;;;;;;;;;;5008178;28;20501;-51
2023/07/23 08:33:01;;;;;;;3.93;2.90;;;;;;;;;;5009508;28;20538;-53
2023/07/23 08:35:29;;;;;;;3.50;2.67;;;;;;;;;;5009338;28;20530;-52
2023/07/23 08:37:57;;;;;;;4.97;3.70;;;;;;;;;;5023240;28;20442;-52
2023/07/23 08:40:26;;;;;;;4.20;3.30;;;;;;;;;;5027637;28;20549;-52
2023/07/23 08:43:12;;;;;;;5.40;3.53;;;;;;;;;;5027221;28;20903;-51
2023/07/23 08:45:57;;;;;;;4.53;3.30;;;;;;;;;;5026084;28;20954;-53
2023/07/23 08:48:31;;;;;;;3.93;2.37;;;;;;;;;;5020774;28;20525;-53
2023/07/23 08:50:58;;;;;;;5.00;3.37;;;;;;;;;;5026467;28;20985;-53
2023/07/23 08:53:26;;;;;;;4.23;2.63;;;;;;;;;;5027804;28;20446;-52
2023/07/23 08:55:53;;;;;;;5.43;4.10;;;;;;;;;;5028147;28;21101;-53
2023/07/23 08:58:21;;;;;;;3.80;3.00;;;;;;;;;;5028163;28;21083;-54
2023/07/23 09:00:48;;;;;;;8.40;3.23;;;;;;;;;;5028528;28;20553;-52
2023/07/23 09:03:17;;;;;;;4.40;2.93;;;;;;;;;;5028548;28;20599;-51
2023/07/23 09:05:46;;;;;;;5.50;2.60;;;;;;;;;;5028538;28;20446;-52
2023/07/23 09:08:13;;;;;;;4.30;3.10;;;;;;;;;;5028040;28;20950;-50
2023/07/23 09:10:41;;;;;;;3.27;2.60;;;;;;;;;;5028258;28;20498;-53
2023/07/23 09:13:13;;;;;;;4.33;2.83;;;;;;;;;;5028449;28;20477;-52
2023/07/23 09:15:41;;;;;;;3.63;3.10;;;;;;;;;;5025765;28;20454;-53
2023/07/23 09:18:09;;;;;;;4.90;3.00;;;;;;;;;;5020124;28;20474;-51
2023/07/23 09:20:36;;;;;;;5.10;2.90;;;;;;;;;;5025295;28;20493;-52
2023/07/23 09:23:08;;;;;;;3.70;2.90;;;;;;;;;;5027731;28;20875;-53
2023/07/23 09:25:35;;;;;;;5.80;2.60;;;;;;;;;;5024928;28;20529;-52
2023/07/23 09:28:03;;;;;;;3.90;3.30;;;;;;;;;;5027568;28;20525;-52
2023/07/23 09:30:30;;;;;;;5.20;2.90;;;;;;;;;;5026288;28;20462;-53
2023/07/23 09:32:58;;;;;;;4.13;3.00;;;;;;;;;;5027234;28;20934;-51
2023/07/23 09:35:25;;;;;;;4.33;3.47;;;;;;;;;;5027794;28;20533;-52
2023/07/23 09:37:57;;;;;;;4.40;3.40;;;;;;;;;;5027913;28;20450;-52
2023/07/23 09:40:35;;;;;;;3.63;2.90;;;;;;;;;;5027343;28;20928;-53
2023/07/23 09:43:02;;;;;;;5.53;3.23;;;;;;;;;;5027897;28;20477;-55
2023/07/23 09:45:31;;;;;;;3.70;3.10;;;;;;;;;;5027625;28;20536;-54
2023/07/23 09:47:59;;;;;;;4.80;3.60;;;;;;;;;;5010439;28;20443;-54
2023/07/23 09:50:26;;;;;;;3.73;2.90;;;;;;;;;;5007805;28;20459;-54
2023/07/23 09:52:54;;;;;;;3.47;2.93;;;;;;;;;;5008134;28;20487;-55
2023/07/23 09:55:21;;;;;;;5.03;3.73;;;;;;;;;;5008458;28;20471;-54
2023/07/23 09:57:52;;;;;;;5.10;3.93;;;;;;;;;;5007674;28;20447;-55
2023/07/23 10:00:19;;;;;;;3.90;2.70;;;;;;;;;;5007609;28;20642;-55
2023/07/23 10:02:49;;;;;;;8.23;2.90;;;;;;;;;;5021577;28;20438;-55
2023/07/23 10:05:17;;;;;;;3.30;2.60;;;;;;;;;;5029711;28;20625;-54
2023/07/23 10:07:45;;;;;;;3.90;2.93;;;;;;;;;;5028632;28;20525;-55
2023/07/23 10:10:13;;;;;;;6.20;3.17;;;;;;;;;;5029158;28;20537;-55
2023/07/23 10:12:41;;;;;;;3.90;3.17;;;;;;;;;;5030182;28;20534;-55
2023/07/23 10:15:10;;;;;;;4.60;3.30;;;;;;;;;;5030334;28;20549;-55
2023/07/23 10:17:41;;;;;;;4.13;3.40;;;;;;;;;;5029655;28;20544;-54
2023/07/23 10:20:09;;;;;;;6.63;3.67;;;;;;;;;;5029161;28;20478;-54
2023/07/23 10:22:37;;;;;;;3.93;3.30;;;;;;;;;;5029238;28;20780;-54
2023/07/23 10:25:20;;;;;;;4.63;3.80;;;;;;;;;;5030175;28;21016;-55
2023/07/23 10:27:55;;;;;;;4.23;3.30;;;;;;;;;;5030007;28;20513;-54
2023/07/23 10:30:25;;;;;;;5.97;3.67;;;;;;;;;;5027946;28;20450;-54
2023/07/23 10:33:07;;;;;;;4.10;3.40;;;;;;;;;;5029725;28;20524;-55
2023/07/23 10:35:53;;;;;;;5.13;3.17;;;;;;;;;;5027968;28;20588;-54
2023/07/23 10:38:23;;;;;;;4.80;4.13;;;;;;;;;;5028947;28;20462;-55
2023/07/23 10:40:50;;;;;;;4.20;3.30;;;;;;;;;;5029371;28;20903;-55
2023/07/23 10:43:18;;;;;;;4.20;3.40;;;;;;;;;;5029728;28;20477;-55
2023/07/23 10:45:49;;;;;;;4.93;3.60;;;;;;;;;;5029473;28;20821;-54
2023/07/23 10:48:17;;;;;;;4.77;3.17;;;;;;;;;;5029318;28;20438;-55
2023/07/23 10:50:59;;;;;;;3.90;3.40;;;;;;;;;;5029807;28;20492;-54
2023/07/23 10:53:28;;;;;;;5.20;3.23;;;;;;;;;;5029727;28;20485;-57
2023/07/23 10:55:55;;;;;;;4.90;4.20;;;;;;;;;;5029721;28;20533;-58
2023/07/23 10:58:23;;;;;;;5.30;3.20;;;;;;;;;;5028804;28;20474;-59
2023/07/23 11:00:55;;;;;;;4.33;3.23;;;;;;;;;;5030016;28;20486;-57
2023/07/23 11:03:23;;;;;;;5.33;3.13;;;;;;;;;;5030069;28;20566;-56
2023/07/23 11:05:51;;;;;;;4.80;3.50;;;;;;;;;;5029846;28;20808;-55
2023/07/23 11:08:19;;;;;;;4.00;3.23;;;;;;;;;;5028360;28;20577;-56
2023/07/23 11:10:48;;;;;;;5.57;3.50;;;;;;;;;;5028330;28;20981;-55
2023/07/23 11:13:15;;;;;;;14.30;6.67;;;;;;;;;;5028441;28;20450;-55
2023/07/23 11:15:43;;;;;;;4.87;4.00;;;;;;;;;;5028455;28;20446;-56
2023/07/23 11:18:11;;;;;;;6.47;3.90;;;;;;;;;;5029022;28;20529;-55
2023/07/23 11:20:39;;;;;;;4.40;3.50;;;;;;;;;;5028437;28;20585;-56
2023/07/23 11:23:06;;;;;;;5.70;3.10;;;;;;;;;;5029224;28;20497;-55
2023/07/23 11:25:33;;;;;;;4.60;3.60;;;;;;;;;;5029063;28;21002;-57
2023/07/23 11:28:01;;;;;;;5.17;3.57;;;;;;;;;;5028987;28;20526;-55
2023/07/23 11:30:28;;;;;;;5.03;3.50;;;;;;;;;;5030626;28;20533;-55
2023/07/23 11:32:55;;;;;;;4.83;3.13;;;;;;;;;;5030348;28;20438;-55
2023/07/23 11:35:25;;;;;;;4.57;3.70;;;;;;;;;;5032760;28;20462;-55
2023/07/23 11:37:52;;;;;;;7.13;3.50;;;;;;;;;;5033240;28;20466;-55
2023/07/23 11:40:21;;;;;;;3.80;3.07;;;;;;;;;;5068623;23;21010;-86
2023/07/23 11:42:48;;;;;;;4.23;3.60;;;;;;;;;;5054701;28;20495;-86
2023/07/23 11:45:16;;;;;;;4.23;3.50;;;;;;;;;;5054660;28;20468;-86
2023/07/23 11:47:49;;;;;;;4.70;3.27;;;;;;;;;;5051706;28;20445;-85
2023/07/23 11:50:17;;;;;;;5.60;3.40;;;;;;;;;;5053129;28;20868;-87
2023/07/23 11:52:47;;;;;;;4.13;3.37;;;;;;;;;;5053894;28;20492;-86
2023/07/23 11:55:21;;;;;;;4.00;3.43;;;;;;;;;;5053947;28;21037;-86
2023/07/23 11:57:52;;;;;;;5.53;3.30;;;;;;;;;;5051432;28;20483;-87
2023/07/23 12:00:25;;;;;;;4.33;3.70;;;;;;;;;;5051965;28;20473;-86
2023/07/23 12:02:52;;;;;;;5.80;3.57;;;;;;;;;;5053284;28;20535;-86
2023/07/23 12:05:19;;;;;;;4.13;3.47;;;;;;;;;;5053659;28;20433;-86
2023/07/23 12:07:48;;;;;;;4.40;3.67;;;;;;;;;;5053051;28;20441;-85
2023/07/23 12:10:15;;;;;;;5.90;3.57;;;;;;;;;;5050826;28;20544;-86
2023/07/23 12:12:45;;;;;;;6.30;3.80;;;;;;;;;;5056298;28;20527;-86
2023/07/23 12:15:14;;;;;;;4.60;3.57;;;;;;;;;;5052720;28;20940;-87
2023/07/23 12:17:41;;;;;;;5.90;3.27;;;;;;;;;;5040841;28;20606;-86
2023/07/23 12:20:09;;;;;;;4.90;4.17;;;;;;;;;;5048202;28;20576;-87
2023/07/23 12:22:50;;;;;;;4.97;3.57;;;;;;;;;;5046206;28;20431;-87
2023/07/23 12:25:17;;;;;;;4.90;3.57;;;;;;;;;;5043338;28;20466;-87
2023/07/23 12:27:45;;;;;;;4.63;3.80;;;;;;;;;;5033145;28;20450;-86
2023/07/23 12:30:12;;;;;;;4.93;3.70;;;;;;;;;;5031923;28;20473;-86
2023/07/23 12:32:40;;;;;;;4.70;4.10;;;;;;;;;;5033273;28;20979;-86
2023/07/23 12:35:08;;;;;;;4.87;3.87;;;;;;;;;;5038361;28;20488;-87
2023/07/23 12:37:35;;;;;;;6.40;4.27;;;;;;;;;;5045697;28;20525;-87
2023/07/23 12:40:05;;;;;;;4.97;3.97;;;;;;;;;;5047317;28;20561;-87
2023/07/23 12:42:32;;;;;;;6.70;3.80;;;;;;;;;;5051137;28;20632;-86
2023/07/23 12:45:00;;;;;;;6.10;4.40;;;;;;;;;;5045486;28;20458;-87
2023/07/23 12:47:27;;;;;;;5.50;4.30;;;;;;;;;;5050943;28;20522;-87
2023/07/23 12:49:56;;;;;;;5.37;4.37;;;;;;;;;;5051945;28;20475;-86
2023/07/23 12:52:24;;;;;;;6.27;4.37;;;;;;;;;;5052432;28;20449;-87
2023/07/23 12:54:51;;;;;;;5.93;4.93;;;;;;;;;;5052145;28;21013;-86
2023/07/23 12:57:22;;;;;;;5.83;4.53;;;;;;;;;;5052324;28;21057;-87
2023/07/23 12:59:50;;;;;;;5.97;4.80;;;;;;;;;;5052395;28;20923;-87
2023/07/23 13:02:18;;;;;;;6.27;5.47;;;;;;;;;;5052484;28;20822;-87
2023/07/23 13:04:45;;;;;;;5.60;4.80;;;;;;;;;;5052348;28;20525;-87
2023/07/23 13:07:13;;;;;;;6.03;4.70;;;;;;;;;;5052085;28;20959;-86
2023/07/23 13:09:40;;;;;;;5.93;4.67;;;;;;;;;;5051835;28;20438;-86
2023/07/23 13:12:08;;;;;;;6.30;4.80;;;;;;;;;;5052277;28;20480;-86
2023/07/23 13:14:36;;;;;;;6.70;5.00;;;;;;;;;;5052419;28;20990;-87
2023/07/23 13:17:04;;;;;;;5.60;4.70;;;;;;;;;;5052621;28;20469;-86
2023/07/23 13:19:31;;;;;;;6.10;4.63;;;;;;;;;;5051790;28;20449;-86
2023/07/23 13:21:58;;;;;;;6.70;5.43;;;;;;;;;;5052056;28;21026;-86
2023/07/23 13:24:25;;;;;;;5.30;4.80;;;;;;;;;;5052284;28;20469;-87
2023/07/23 13:26:53;;;;;;;6.37;4.77;;;;;;;;;;5051625;28;20453;-87
2023/07/23 13:29:20;;;;;;;6.50;4.90;;;;;;;;;;5050376;28;20947;-86
2023/07/23 13:31:49;;;;;;;5.10;4.57;;;;;;;;;;5051852;28;20437;-87
2023/07/23 13:34:16;;;;;;;6.77;4.60;;;;;;;;;;5051785;28;20452;-86
2023/07/23 13:36:43;;;;;;;7.80;6.27;;;;;;;;;;5052112;28;20496;-87
2023/07/23 13:39:10;;;;;;;5.53;4.60;;;;;;;;;;5051828;28;20524;-87
2023/07/23 13:41:38;;;;;;;5.93;5.00;;;;;;;;;;5052094;28;20517;-87
2023/07/23 13:44:05;;;;;;;5.83;4.80;;;;;;;;;;5052153;28;20922;-86
2023/07/23 13:46:32;;;;;;;6.23;4.63;;;;;;;;;;5052281;28;20461;-86
2023/07/23 13:49:01;;;;;;;6.33;5.47;;;;;;;;;;5057676;28;20937;-86
2023/07/23 13:51:28;;;;;;;6.27;5.07;;;;;;;;;;5050932;28;20438;-87
2023/07/23 13:53:55;;;;;;;7.07;5.13;;;;;;;;;;5045102;28;20980;-87
2023/07/23 13:56:23;;;;;;;8.23;5.40;;;;;;;;;;5051716;28;20547;-87
2023/07/23 13:58:50;;;;;;;6.73;5.07;;;;;;;;;;5052536;28;20469;-86
2023/07/23 14:01:17;;;;;;;5.87;5.17;;;;;;;;;;5052048;28;20560;-87
2023/07/23 14:03:44;;;;;;;6.47;5.07;;;;;;;;;;5051964;28;20494;-86
2023/07/23 14:06:13;;;;;;;7.30;5.60;;;;;;;;;;5051746;28;20469;-85
2023/07/23 14:08:40;;;;;;;8.03;4.93;;;;;;;;;;5050446;28;20484;-85
2023/07/23 14:11:08;;;;;;;6.70;5.00;;;;;;;;;;5051494;28;20434;-86
2023/07/23 14:13:35;;;;;;;6.77;4.87;;;;;;;;;;5051066;28;20868;-85
2023/07/23 14:16:02;;;;;;;7.50;5.87;;;;;;;;;;5050337;28;21058;-85
2023/07/23 14:18:29;;;;;;;6.47;5.53;;;;;;;;;;5050059;28;20917;-86
2023/07/23 14:20:57;;;;;;;6.70;4.83;;;;;;;;;;5050200;28;20477;-85
2023/07/23 14:23:25;;;;;;;5.87;5.20;;;;;;;;;;5050209;28;20951;-86
2023/07/23 14:25:53;;;;;;;7.03;5.20;;;;;;;;;;5049840;28;20453;-85
2023/07/23 14:28:20;;;;;;;8.13;6.47;;;;;;;;;;5049978;28;20449;-85
2023/07/23 14:30:49;;;;;;;7.70;5.70;;;;;;;;;;5049382;28;20812;-85
2023/07/23 14:33:19;;;;;;;6.87;5.20;;;;;;;;;;5048715;28;20520;-85
2023/07/23 14:35:46;;;;;;;6.93;5.57;;;;;;;;;;5050692;28;20489;-86
2023/07/23 14:38:13;;;;;;;8.00;5.20;;;;;;;;;;5049915;28;20524;-85
2023/07/23 14:40:42;;;;;;;6.43;5.73;;;;;;;;;;5049478;28;20851;-85
2023/07/23 14:43:09;;;;;;;7.23;5.67;;;;;;;;;;5050081;28;20434;-85
2023/07/23 14:45:36;;;;;;;7.20;5.50;;;;;;;;;;5050025;28;20477;-85
2023/07/23 14:48:04;;;;;;;6.80;5.50;;;;;;;;;;5050019;28;20491;-84